Time;durP1;ratioP1;P1;durP2;ratioP2;P2;SDS_P1;SDS_P2;PMS_P1;PMS_P2;Temp;Humidity;BMP_temperature;BMP_pressure;BME280_temperature;BME280_humidity;BME280_pressure;Samples;Min_cycle;Max_cycle;Signal;HPM_P1;HPM_P2
2022/07/02 00:00:57;;;;;;;8.15;1.67;;;13.60;99.90;;;;;;6130768;23;20387;-94
2022/07/02 00:03:29;;;;;;;5.93;2.20;;;13.60;99.90;;;;;;6130975;23;20021;-93
2022/07/02 00:05:56;;;;;;;7.53;2.08;;;13.60;99.90;;;;;;6130904;23;20069;-93
2022/07/02 00:08:25;;;;;;;6.70;2.00;;;13.60;99.90;;;;;;6131108;23;20112;-94
2022/07/02 00:10:52;;;;;;;9.77;1.80;;;13.60;99.90;;;;;;6130906;23;20126;-94
2022/07/02 00:13:19;;;;;;;7.22;2.10;;;13.50;99.90;;;;;;6130868;23;20018;-93
2022/07/02 00:15:45;;;;;;;5.32;1.95;;;13.60;99.90;;;;;;6130937;23;20017;-93
2022/07/02 00:18:12;;;;;;;7.25;1.77;;;13.60;99.90;;;;;;6130415;23;20074;-93
2022/07/02 00:20:38;;;;;;;12.00;2.50;;;13.50;99.90;;;;;;6130600;23;20091;-93
2022/07/02 00:23:04;;;;;;;6.18;2.35;;;13.50;99.90;;;;;;6130396;23;20078;-93
2022/07/02 00:25:37;;;;;;;8.80;2.40;;;13.50;99.90;;;;;;6130794;23;20463;-93
2022/07/02 00:28:06;;;;;;;4.50;1.95;;;13.50;99.90;;;;;;6130022;23;20024;-93
2022/07/02 00:30:33;;;;;;;8.32;2.83;;;13.50;99.90;;;;;;6130429;23;20027;-93
2022/07/02 00:33:01;;;;;;;7.97;2.17;;;13.50;99.90;;;;;;6130226;23;20063;-93
2022/07/02 00:35:27;;;;;;;8.43;2.20;;;13.40;99.90;;;;;;6130459;23;20021;-94
2022/07/02 00:37:54;;;;;;;5.85;2.17;;;13.40;99.90;;;;;;6130577;23;20520;-93
2022/07/02 00:40:20;;;;;;;6.88;2.05;;;13.40;99.90;;;;;;6130712;23;20094;-94
2022/07/02 00:42:47;;;;;;;7.32;2.25;;;13.40;99.90;;;;;;6130568;23;20532;-94
2022/07/02 00:45:13;;;;;;;5.55;2.45;;;13.40;99.90;;;;;;6130648;23;20063;-93
2022/07/02 00:47:41;;;;;;;8.85;2.38;;;13.30;99.90;;;;;;6130377;23;20020;-93
2022/07/02 00:50:07;;;;;;;4.25;2.25;;;13.40;99.90;;;;;;6130901;23;20598;-93
2022/07/02 00:52:34;;;;;;;8.68;2.40;;;13.30;99.90;;;;;;6130357;23;20013;-94
2022/07/02 00:54:59;;;;;;;9.80;2.20;;;13.30;99.90;;;;;;6130458;23;20017;-93
2022/07/02 00:57:25;;;;;;;8.80;2.50;;;13.30;99.90;;;;;;6130537;23;20596;-93
2022/07/02 00:59:51;;;;;;;5.40;2.40;;;13.30;99.90;;;;;;6130322;23;20017;-93
2022/07/02 01:02:21;;;;;;;6.82;2.53;;;13.30;99.90;;;;;;6130279;23;20017;-94
2022/07/02 01:04:49;;;;;;;8.00;2.53;;;13.30;99.90;;;;;;6130711;23;20446;-93
2022/07/02 01:07:16;;;;;;;12.52;3.10;;;13.30;99.90;;;;;;6130306;23;20441;-93
2022/07/02 01:12:30;;;;;;;5.32;2.47;;;13.30;99.90;;;;;;6154801;23;20485;-94
2022/07/02 01:14:57;;;;;;;7.45;1.92;;;13.30;99.90;;;;;;6130396;23;20017;-93
2022/07/02 01:17:23;;;;;;;6.10;2.22;;;13.20;99.90;;;;;;6130196;23;20063;-94
2022/07/02 01:19:49;;;;;;;8.60;2.30;;;13.30;99.90;;;;;;6130521;23;20017;-94
2022/07/02 01:22:24;;;;;;;7.82;2.50;;;13.20;99.90;;;;;;6130835;23;20020;-94
2022/07/02 01:24:52;;;;;;;8.02;2.55;;;13.20;99.90;;;;;;6130567;23;20039;-94
2022/07/02 01:27:20;;;;;;;6.20;2.50;;;13.20;99.90;;;;;;6130337;23;20349;-93
2022/07/02 01:29:46;;;;;;;9.98;2.50;;;13.20;99.90;;;;;;6130173;23;20125;-94
2022/07/02 01:32:12;;;;;;;8.70;2.28;;;13.20;99.90;;;;;;6129965;23;20017;-93
2022/07/02 01:34:42;;;;;;;8.13;2.72;;;13.20;99.90;;;;;;6154650;23;20025;-94
2022/07/02 01:37:11;;;;;;;10.77;2.38;;;13.20;99.90;;;;;;6130036;23;20017;-93
2022/07/02 01:39:38;;;;;;;8.18;2.83;;;13.20;99.90;;;;;;6130742;23;20017;-93
2022/07/02 01:42:05;;;;;;;8.88;2.63;;;13.10;99.90;;;;;;6130667;23;20117;-93
2022/07/02 01:44:32;;;;;;;9.85;2.42;;;13.10;99.90;;;;;;6130680;23;20013;-94
2022/07/02 01:46:58;;;;;;;5.53;2.25;;;13.10;99.90;;;;;;6130439;23;20017;-96
2022/07/02 01:49:23;;;;;;;10.40;3.00;;;13.10;99.90;;;;;;6130120;23;20479;-93
2022/07/02 01:51:49;;;;;;;5.57;2.75;;;13.10;99.90;;;;;;6129963;23;20020;-94
2022/07/02 01:54:15;;;;;;;12.10;2.78;;;13.10;99.90;;;;;;6130811;23;20017;-95
2022/07/02 01:56:40;;;;;;;10.02;2.63;;;13.10;99.90;;;;;;6129959;23;20021;-93
2022/07/02 01:59:06;;;;;;;11.90;2.63;;;13.10;99.90;;;;;;6129960;23;20177;-93
2022/07/02 02:01:33;;;;;;;8.43;3.00;;;13.10;99.90;;;;;;6130328;23;20143;-93
2022/07/02 02:03:59;;;;;;;9.35;2.75;;;13.10;99.90;;;;;;6130324;23;20345;-93
2022/07/02 02:06:26;;;;;;;13.13;2.60;;;13.10;99.90;;;;;;6129737;23;20021;-94
2022/07/02 02:08:51;;;;;;;12.20;2.67;;;13.10;99.90;;;;;;6130112;23;20028;-94
2022/07/02 02:11:17;;;;;;;9.80;2.60;;;13.10;99.90;;;;;;6130040;23;20017;-94
2022/07/02 02:13:43;;;;;;;7.78;2.28;;;13.10;99.90;;;;;;6130045;23;20028;-93
2022/07/02 02:16:08;;;;;;;10.15;2.60;;;13.10;99.90;;;;;;6129913;23;20021;-93
2022/07/02 02:18:34;;;;;;;12.25;2.65;;;13.10;99.90;;;;;;6129881;23;20017;-93
2022/07/02 02:21:00;;;;;;;8.40;2.13;;;13.10;99.90;;;;;;6129736;23;20094;-93
2022/07/02 02:23:26;;;;;;;9.40;2.22;;;13.10;99.90;;;;;;6129827;23;20098;-93
2022/07/02 02:25:51;;;;;;;6.03;2.30;;;13.10;99.90;;;;;;6130178;23;20017;-93
2022/07/02 02:28:17;;;;;;;9.10;2.67;;;13.00;99.90;;;;;;6129663;23;20021;-93
2022/07/02 02:30:43;;;;;;;10.00;2.67;;;13.00;99.90;;;;;;6129546;23;20063;-93
2022/07/02 02:33:08;;;;;;;6.32;2.13;;;13.00;99.90;;;;;;6124559;23;20017;-93
2022/07/02 02:35:34;;;;;;;8.13;2.38;;;13.00;99.90;;;;;;6134542;23;20072;-93
2022/07/02 02:38:00;;;;;;;8.18;2.53;;;13.00;99.90;;;;;;6157923;23;20020;-94
2022/07/02 02:40:25;;;;;;;7.60;2.70;;;12.90;99.90;;;;;;6159736;23;20499;-93
2022/07/02 02:42:51;;;;;;;8.30;2.35;;;12.90;99.90;;;;;;6159382;23;20387;-94
2022/07/02 02:45:17;;;;;;;12.88;2.58;;;12.90;99.90;;;;;;6159803;23;20476;-94
2022/07/02 02:47:43;;;;;;;15.93;2.30;;;12.90;99.90;;;;;;6158832;23;20069;-93
2022/07/02 02:50:09;;;;;;;7.40;2.47;;;12.90;99.90;;;;;;6159404;23;20055;-93
2022/07/02 02:52:34;;;;;;;10.38;2.40;;;12.90;99.90;;;;;;6159554;22;20067;-93
2022/07/02 02:55:03;;;;;;;15.82;2.63;;;12.90;99.90;;;;;;6159349;23;20023;-93
2022/07/02 02:57:28;;;;;;;7.70;2.60;;;12.90;99.90;;;;;;6159672;23;20009;-93
2022/07/02 02:59:54;;;;;;;6.82;2.30;;;12.90;99.90;;;;;;6159014;23;20095;-93
2022/07/02 03:02:20;;;;;;;6.10;2.85;;;12.90;99.90;;;;;;6159901;22;20025;-94
2022/07/02 03:04:46;;;;;;;9.85;2.55;;;12.90;99.90;;;;;;6158911;23;20015;-93
2022/07/02 03:07:11;;;;;;;11.10;2.58;;;12.90;99.90;;;;;;6159284;23;20445;-93
2022/07/02 03:09:37;;;;;;;9.20;2.53;;;12.90;99.90;;;;;;6159479;23;20025;-94
2022/07/02 03:12:03;;;;;;;16.52;2.85;;;12.90;99.90;;;;;;6159078;22;20074;-93
2022/07/02 03:14:29;;;;;;;11.88;4.00;;;12.90;99.90;;;;;;6160845;22;20024;-94
2022/07/02 03:16:55;;;;;;;8.15;2.70;;;12.90;99.90;;;;;;6159881;23;20054;-93
2022/07/02 03:19:20;;;;;;;8.30;2.78;;;12.90;99.90;;;;;;6160899;23;20013;-93
2022/07/02 03:21:46;;;;;;;9.93;2.80;;;12.90;99.90;;;;;;6160448;23;20016;-92
2022/07/02 03:24:12;;;;;;;8.38;2.88;;;12.90;99.90;;;;;;6160533;23;20016;-94
2022/07/02 03:26:37;;;;;;;12.52;3.17;;;12.80;99.90;;;;;;6163066;23;20056;-92
2022/07/02 03:29:03;;;;;;;9.85;2.75;;;12.80;99.90;;;;;;6161231;23;20456;-94
2022/07/02 03:31:29;;;;;;;12.48;3.15;;;12.80;99.90;;;;;;6160677;23;20020;-93
2022/07/02 03:33:55;;;;;;;9.30;2.50;;;12.80;99.90;;;;;;6172380;22;20021;-93
2022/07/02 03:36:20;;;;;;;10.18;3.10;;;12.80;99.90;;;;;;6162560;22;20117;-93
2022/07/02 03:38:46;;;;;;;7.93;2.78;;;12.80;99.90;;;;;;6162661;23;20019;-93
2022/07/02 03:41:12;;;;;;;12.48;2.90;;;12.70;99.90;;;;;;6162661;22;20009;-93
2022/07/02 03:43:38;;;;;;;7.63;2.70;;;12.70;99.90;;;;;;6160076;23;20082;-93
2022/07/02 03:46:03;;;;;;;9.65;3.10;;;12.70;99.90;;;;;;6160458;23;20080;-92
2022/07/02 03:48:29;;;;;;;9.73;2.88;;;12.70;99.90;;;;;;6160397;22;20578;-93
2022/07/02 03:50:55;;;;;;;9.93;2.97;;;12.70;99.90;;;;;;6160479;22;20020;-93
2022/07/02 03:53:21;;;;;;;10.90;3.30;;;12.70;99.90;;;;;;6160020;23;20035;-93
2022/07/02 03:55:46;;;;;;;11.68;3.22;;;12.70;99.90;;;;;;6162296;23;20348;-93
2022/07/02 03:58:12;;;;;;;10.85;2.85;;;12.80;99.90;;;;;;6160355;23;20019;-93
2022/07/02 04:00:38;;;;;;;8.70;2.90;;;12.80;99.90;;;;;;6160151;23;20116;-94
2022/07/02 04:03:04;;;;;;;7.78;2.92;;;12.80;99.90;;;;;;6158001;23;20123;-92
2022/07/02 04:05:29;;;;;;;9.65;3.55;;;12.90;99.90;;;;;;6162136;23;20017;-92
2022/07/02 04:07:55;;;;;;;7.65;2.72;;;12.90;99.90;;;;;;6161474;22;20067;-93
2022/07/02 04:10:21;;;;;;;12.07;3.42;;;12.90;99.90;;;;;;6161323;23;20073;-93
2022/07/02 04:12:48;;;;;;;8.10;2.83;;;13.00;99.90;;;;;;6160172;22;20337;-93
2022/07/02 04:15:13;;;;;;;12.95;3.88;;;13.00;99.90;;;;;;6161570;23;20092;-93
2022/07/02 04:17:39;;;;;;;11.18;3.17;;;13.10;99.90;;;;;;6160604;23;20040;-93
2022/07/02 04:20:05;;;;;;;8.98;3.20;;;13.10;99.90;;;;;;6159914;23;20073;-94
2022/07/02 04:22:31;;;;;;;10.90;3.53;;;13.10;99.90;;;;;;6160049;23;20031;-93
2022/07/02 04:24:57;;;;;;;9.75;3.67;;;13.20;99.90;;;;;;6160006;22;20017;-94
2022/07/02 04:27:22;;;;;;;10.32;4.35;;;13.30;99.90;;;;;;6160115;23;20039;-93
2022/07/02 04:29:48;;;;;;;10.65;3.22;;;13.30;99.90;;;;;;6161266;23;20024;-93
2022/07/02 04:32:14;;;;;;;12.52;3.83;;;13.40;99.90;;;;;;6155792;23;20017;-93
2022/07/02 04:34:40;;;;;;;7.53;2.85;;;13.50;99.90;;;;;;6157413;23;20025;-94
2022/07/02 04:37:06;;;;;;;9.93;3.60;;;13.50;99.90;;;;;;6155307;23;20066;-93
2022/07/02 04:39:32;;;;;;;11.60;3.85;;;13.60;99.90;;;;;;6132612;23;20052;-93
2022/07/02 04:41:58;;;;;;;9.75;3.85;;;13.70;99.90;;;;;;6129994;23;20009;-93
2022/07/02 04:44:24;;;;;;;7.55;3.08;;;13.80;99.90;;;;;;6155034;23;20016;-93
2022/07/02 04:46:50;;;;;;;11.52;3.75;;;13.80;99.90;;;;;;6155254;23;20052;-93
2022/07/02 04:49:16;;;;;;;9.93;3.10;;;13.90;99.90;;;;;;6154608;23;20025;-94
2022/07/02 04:51:42;;;;;;;11.70;3.58;;;14.00;99.90;;;;;;6155023;23;20104;-93
2022/07/02 04:54:08;;;;;;;8.45;3.33;;;14.10;99.90;;;;;;6130764;23;20454;-94
2022/07/02 04:56:34;;;;;;;7.75;3.55;;;14.20;99.90;;;;;;6155981;23;20021;-93
2022/07/02 04:58:59;;;;;;;13.88;3.90;;;14.20;99.90;;;;;;6158868;23;20017;-94
2022/07/02 05:01:25;;;;;;;10.32;4.05;;;14.30;99.90;;;;;;6166322;23;20023;-96
2022/07/02 05:03:52;;;;;;;13.43;4.32;;;14.40;99.90;;;;;;6193459;23;20024;-96
2022/07/02 05:06:21;;;;;;;12.55;5.10;;;14.50;99.90;;;;;;6159765;23;20028;-96
2022/07/02 05:08:48;;;;;;;9.75;4.75;;;14.50;99.90;;;;;;6155067;23;20024;-96
2022/07/02 05:11:16;;;;;;;12.00;5.10;;;14.60;99.90;;;;;;6156867;23;20017;-95
2022/07/02 05:13:53;;;;;;;11.70;5.13;;;14.70;99.90;;;;;;6132258;23;20079;-96
2022/07/02 05:16:22;;;;;;;12.50;5.65;;;14.80;99.90;;;;;;6164111;23;20024;-96
2022/07/02 05:18:48;;;;;;;9.88;5.85;;;14.90;99.90;;;;;;6155363;23;20356;-96
2022/07/02 05:21:14;;;;;;;12.88;5.60;;;14.90;99.90;;;;;;6155464;23;20050;-96
2022/07/02 05:23:40;;;;;;;12.27;5.50;;;15.00;99.90;;;;;;6155604;23;20065;-96
2022/07/02 05:26:06;;;;;;;10.57;5.18;;;15.10;99.90;;;;;;6157662;23;20045;-96
2022/07/02 05:28:32;;;;;;;12.30;5.68;;;15.20;99.90;;;;;;6158815;23;20506;-96
2022/07/02 05:30:58;;;;;;;10.38;5.13;;;15.20;99.90;;;;;;6157287;23;20017;-96
2022/07/02 05:33:24;;;;;;;12.20;4.50;;;15.30;99.90;;;;;;6130724;23;20071;-96
2022/07/02 05:35:50;;;;;;;13.07;5.55;;;15.40;99.90;;;;;;6133553;23;20035;-96
2022/07/02 05:38:16;;;;;;;13.20;4.65;;;15.40;99.90;;;;;;6183076;23;20017;-96
2022/07/02 05:40:47;;;;;;;9.18;5.30;;;15.50;99.90;;;;;;6158160;23;20021;-96
2022/07/02 05:43:13;;;;;;;9.77;4.57;;;15.80;99.90;;;;;;6155840;23;20132;-96
2022/07/02 05:45:42;;;;;;;7.55;4.60;;;15.70;99.90;;;;;;6166731;23;20438;-95
2022/07/02 05:48:08;;;;;;;11.10;4.18;;;15.80;99.90;;;;;;6155906;23;20327;-89
2022/07/02 05:50:33;;;;;;;8.38;3.97;;;15.90;99.90;;;;;;6154106;23;20032;-90
2022/07/02 05:52:59;;;;;;;11.07;4.18;;;15.90;99.90;;;;;;6154931;23;20020;-91
2022/07/02 05:55:25;;;;;;;8.85;3.53;;;16.00;99.90;;;;;;6154588;23;20013;-90
2022/07/02 05:57:51;;;;;;;11.68;4.03;;;16.10;99.90;;;;;;6134159;23;20057;-89
2022/07/02 06:00:16;;;;;;;7.35;3.70;;;16.10;99.90;;;;;;6129712;23;20021;-89
2022/07/02 06:02:42;;;;;;;9.63;3.90;;;16.20;99.90;;;;;;6129482;23;20066;-91
2022/07/02 06:07:53;;;;;;;13.80;3.60;;;16.40;99.90;;;;;;6156357;23;20071;-91
2022/07/02 06:10:19;;;;;;;9.85;3.25;;;16.50;99.90;;;;;;6127811;23;20441;-89
2022/07/02 06:12:47;;;;;;;10.63;3.35;;;16.60;99.90;;;;;;6128674;23;20036;-90
2022/07/02 06:15:13;;;;;;;13.30;3.65;;;16.60;99.90;;;;;;6154453;23;20028;-90
2022/07/02 06:17:39;;;;;;;13.45;3.50;;;16.70;99.90;;;;;;6153955;23;20092;-90
2022/07/02 06:20:05;;;;;;;10.88;3.17;;;16.80;99.90;;;;;;6154192;23;20383;-90
2022/07/02 06:22:31;;;;;;;10.57;3.00;;;16.90;99.90;;;;;;6154487;23;20019;-90
2022/07/02 06:24:57;;;;;;;13.27;4.07;;;16.90;99.90;;;;;;6154890;23;20497;-90
2022/07/02 06:27:22;;;;;;;12.00;3.20;;;17.00;99.90;;;;;;6131984;23;20461;-90
2022/07/02 06:29:48;;;;;;;7.95;3.15;;;17.10;99.90;;;;;;6154701;23;20024;-90
2022/07/02 06:32:16;;;;;;;8.77;3.40;;;17.20;99.90;;;;;;6155589;23;20021;-90
2022/07/02 06:34:43;;;;;;;9.40;3.65;;;17.20;99.90;;;;;;6154021;23;20056;-90
2022/07/02 06:37:09;;;;;;;7.25;3.03;;;17.30;99.90;;;;;;6154692;23;20014;-90
2022/07/02 06:39:35;;;;;;;7.55;3.22;;;17.40;99.90;;;;;;6128558;23;20009;-91
2022/07/02 06:42:20;;;;;;;7.70;2.78;;;17.50;99.90;;;;;;6153213;23;20070;-90
2022/07/02 06:44:47;;;;;;;9.48;2.90;;;17.50;99.90;;;;;;6156168;23;20552;-90
2022/07/02 06:47:13;;;;;;;6.03;2.90;;;17.70;99.90;;;;;;6154519;23;20438;-90
2022/07/02 06:49:39;;;;;;;9.55;2.42;;;17.70;99.90;;;;;;6152737;23;20100;-94
2022/07/02 06:52:06;;;;;;;9.00;3.08;;;17.80;99.90;;;;;;6153093;23;20064;-91
2022/07/02 06:54:32;;;;;;;7.97;2.70;;;17.80;99.90;;;;;;6155548;23;20013;-91
2022/07/02 06:56:58;;;;;;;13.02;3.10;;;17.90;99.90;;;;;;6155299;23;20021;-91
2022/07/02 06:59:23;;;;;;;10.95;2.80;;;18.00;99.90;;;;;;6156086;23;20016;-91
2022/07/02 07:01:49;;;;;;;8.80;2.88;;;18.00;99.90;;;;;;6155736;23;20062;-90
2022/07/02 07:04:15;;;;;;;7.47;2.03;;;18.10;99.90;;;;;;6156067;23;20021;-90
2022/07/02 07:06:50;;;;;;;7.80;2.15;;;18.20;99.90;;;;;;6156348;23;20020;-96
2022/07/02 07:09:16;;;;;;;7.57;2.13;;;18.30;99.90;;;;;;6163360;23;20017;-96
2022/07/02 07:11:42;;;;;;;10.32;2.10;;;18.40;99.90;;;;;;6162683;23;20021;-91
2022/07/02 07:14:08;;;;;;;8.18;1.85;;;18.50;99.90;;;;;;6138698;23;20013;-96
2022/07/02 07:16:33;;;;;;;6.47;1.52;;;18.50;99.90;;;;;;6164658;23;20021;-96
2022/07/02 07:19:01;;;;;;;7.10;2.00;;;18.50;99.90;;;;;;6168964;23;20017;-96
2022/07/02 07:21:27;;;;;;;6.38;1.52;;;18.60;99.90;;;;;;6166855;23;20078;-96
2022/07/02 07:23:54;;;;;;;7.95;1.77;;;18.60;99.90;;;;;;6172950;23;20052;-96
2022/07/02 07:26:23;;;;;;;4.90;1.27;;;18.80;99.90;;;;;;6149266;23;20017;-96
2022/07/02 07:28:49;;;;;;;9.05;1.20;;;18.80;99.90;;;;;;6170506;23;20040;-96
2022/07/02 07:31:19;;;;;;;12.25;1.67;;;18.80;99.90;;;;;;6166348;23;20318;-96
2022/07/02 07:33:46;;;;;;;9.40;1.77;;;18.90;99.90;;;;;;6168199;22;20031;-96
2022/07/02 07:36:12;;;;;;;6.45;1.50;;;18.80;99.90;;;;;;6168662;23;20027;-96
2022/07/02 07:38:39;;;;;;;7.25;1.58;;;18.90;99.90;;;;;;6166090;23;20021;-96
2022/07/02 07:41:05;;;;;;;8.20;1.50;;;18.90;99.90;;;;;;6166677;23;20016;-96
2022/07/02 07:43:31;;;;;;;7.72;1.30;;;19.00;99.90;;;;;;6166125;23;20020;-96
2022/07/02 07:45:57;;;;;;;7.68;1.38;;;19.00;99.90;;;;;;6168724;23;20050;-96
2022/07/02 07:48:27;;;;;;;5.63;1.40;;;19.10;99.90;;;;;;6169914;23;20021;-96
2022/07/02 07:50:53;;;;;;;8.27;1.50;;;19.20;99.90;;;;;;6170704;22;20020;-96
2022/07/02 07:53:19;;;;;;;5.88;1.17;;;19.20;99.90;;;;;;6168923;22;20016;-96
2022/07/02 07:55:45;;;;;;;9.60;1.60;;;19.40;99.90;;;;;;6169109;22;20530;-96
2022/07/02 07:58:12;;;;;;;9.32;1.80;;;19.50;99.90;;;;;;6194774;23;20122;-96
2022/07/02 08:00:38;;;;;;;5.57;1.50;;;19.70;99.90;;;;;;6167551;23;20123;-96
2022/07/02 08:03:03;;;;;;;4.38;1.25;;;19.50;99.90;;;;;;6166463;22;20023;-96
2022/07/02 08:05:29;;;;;;;6.25;1.20;;;19.50;99.90;;;;;;6167983;22;20035;-96
2022/07/02 08:07:55;;;;;;;9.27;1.45;;;19.60;99.90;;;;;;6167501;22;20013;-96
2022/07/02 08:10:21;;;;;;;6.15;1.00;;;19.60;99.90;;;;;;6169119;22;20044;-96
2022/07/02 08:12:48;;;;;;;5.35;1.05;;;19.70;99.90;;;;;;6164773;22;20021;-96
2022/07/02 08:15:14;;;;;;;3.33;0.77;;;19.70;99.90;;;;;;6168014;22;20082;-96
2022/07/02 08:17:40;;;;;;;5.70;0.90;;;19.70;99.90;;;;;;6168081;23;20017;-96
2022/07/02 08:20:07;;;;;;;6.10;1.10;;;19.80;99.90;;;;;;6167027;23;20017;-96
2022/07/02 08:22:34;;;;;;;5.85;0.95;;;19.90;99.90;;;;;;6167282;23;20104;-96
2022/07/02 08:25:00;;;;;;;3.65;0.80;;;19.90;99.90;;;;;;6167817;22;20457;-96
2022/07/02 08:27:26;;;;;;;6.85;1.10;;;20.00;99.90;;;;;;6165812;23;20013;-96
2022/07/02 08:29:52;;;;;;;5.30;0.73;;;20.00;99.90;;;;;;6165536;23;20088;-96
2022/07/02 08:32:18;;;;;;;4.82;1.05;;;20.00;99.90;;;;;;6163818;23;20092;-96
2022/07/02 08:34:44;;;;;;;3.70;0.80;;;20.10;99.90;;;;;;6166039;22;20069;-96
2022/07/02 08:37:10;;;;;;;9.18;0.98;;;20.10;99.90;;;;;;6165729;22;20001;-96
2022/07/02 08:39:36;;;;;;;6.68;0.95;;;20.20;99.90;;;;;;6165968;22;20017;-96
2022/07/02 08:42:03;;;;;;;8.77;1.15;;;20.20;99.90;;;;;;6163785;23;20050;-96
2022/07/02 08:44:31;;;;;;;3.30;0.93;;;20.30;99.90;;;;;;6166125;23;20333;-96
2022/07/02 08:46:58;;;;;;;7.90;1.13;;;20.30;99.90;;;;;;6188080;23;20050;-96
2022/07/02 08:49:30;;;;;;;4.95;1.00;;;20.40;99.90;;;;;;6165394;22;20023;-96
2022/07/02 08:52:04;;;;;;;8.50;2.63;;;20.40;99.90;;;;;;6167611;23;20065;-96
2022/07/02 08:54:32;;;;;;;3.70;0.80;;;20.50;99.90;;;;;;6165515;23;20045;-96
2022/07/02 08:57:01;;;;;;;3.58;1.00;;;20.50;99.90;;;;;;6170777;23;20119;-96
2022/07/02 08:59:30;;;;;;;5.07;1.00;;;20.60;99.90;;;;;;6168697;23;20009;-96
2022/07/02 09:01:56;;;;;;;3.28;0.73;;;20.70;99.90;;;;;;6168184;23;20750;-96
2022/07/02 09:04:23;;;;;;;4.40;0.95;;;20.80;99.90;;;;;;6164182;23;20017;-96
2022/07/02 09:06:52;;;;;;;3.25;0.60;;;20.90;99.90;;;;;;6166352;22;20047;-96
2022/07/02 09:09:18;;;;;;;4.03;0.55;;;21.00;99.90;;;;;;6166211;23;20429;-96
2022/07/02 09:11:46;;;;;;;6.35;0.63;;;21.00;99.90;;;;;;6167440;23;20124;-96
2022/07/02 09:14:16;;;;;;;8.07;0.47;;;21.20;99.90;;;;;;6171718;23;20016;-96
2022/07/02 09:16:42;;;;;;;3.03;0.70;;;21.10;99.90;;;;;;6172431;23;20017;-96
2022/07/02 09:19:08;;;;;;;2.80;0.50;;;21.10;99.90;;;;;;6179481;22;20001;-95
2022/07/02 09:21:41;;;;;;;4.38;0.88;;;21.10;99.90;;;;;;6186850;22;20027;-94
2022/07/02 09:24:43;;;;;;;1.42;0.32;;;21.30;99.90;;;;;;6131444;23;20041;-91
2022/07/02 09:27:30;;;;;;;6.88;0.70;;;21.30;99.90;;;;;;6026490;23;20041;-91
2022/07/02 09:30:09;;;;;;;1.75;0.50;;;21.40;99.90;;;;;;6098846;23;20065;-90
2022/07/02 09:33:54;;;;;;;2.08;0.40;;;21.30;99.90;;;;;;6098995;23;20017;-90
2022/07/02 09:36:02;;;;;;;1.63;0.40;;;21.40;99.90;;;;;;6140338;22;20025;-90
2022/07/02 09:38:28;;;;;;;3.35;0.55;;;21.50;99.90;;;;;;6099018;23;20021;-90
2022/07/02 09:41:14;;;;;;;3.97;0.60;;;21.40;99.90;;;;;;6098306;23;20052;-90
2022/07/02 09:43:41;;;;;;;3.22;0.30;;;21.50;99.90;;;;;;6098941;23;20026;-90
2022/07/02 09:46:19;;;;;;;5.35;0.63;;;21.60;99.90;;;;;;6098383;23;20017;-90
2022/07/02 09:48:55;;;;;;;4.50;0.40;;;21.60;99.60;;;;;;6098201;23;20013;-90
2022/07/02 09:51:24;;;;;;;2.08;0.30;;;21.80;99.90;;;;;;6098813;23;20018;-90
2022/07/02 09:53:57;;;;;;;1.50;0.30;;;21.80;99.90;;;;;;6098740;23;20049;-90
2022/07/02 09:56:26;;;;;;;3.58;0.30;;;21.80;99.90;;;;;;6099218;23;20525;-90
2022/07/02 09:59:17;;;;;;;5.63;0.85;;;21.90;99.90;;;;;;6099012;23;20017;-90
2022/07/02 10:02:11;;;;;;;3.97;0.65;;;22.00;99.70;;;;;;6098406;23;20082;-90
2022/07/02 10:05:20;;;;;;;8.77;0.52;;;22.00;97.30;;;;;;6098520;23;20025;-89
2022/07/02 10:07:46;;;;;;;3.83;0.52;;;22.00;98.30;;;;;;6046721;23;20457;-91
2022/07/02 10:10:38;;;;;;;4.25;0.50;;;22.00;99.60;;;;;;6098875;23;20102;-90
2022/07/02 10:13:10;;;;;;;3.78;0.50;;;22.00;99.90;;;;;;6121686;23;20060;-90
2022/07/02 10:16:04;;;;;;;8.75;0.90;;;22.20;99.70;;;;;;6098940;23;20092;-89
2022/07/02 10:19:00;;;;;;;3.42;0.50;;;22.20;98.60;;;;;;6098502;23;20018;-91
2022/07/02 10:21:51;;;;;;;4.03;0.50;;;22.00;98.80;;;;;;6092175;23;20022;-89
2022/07/02 10:25:10;;;;;;;3.45;0.60;;;22.00;99.90;;;;;;6096757;23;20032;-89
2022/07/02 10:27:36;;;;;;;1.70;0.30;;;22.10;99.90;;;;;;6097303;23;20025;-89
2022/07/02 10:30:10;;;;;;;4.65;0.50;;;22.20;99.90;;;;;;6099333;23;20174;-90
2022/07/02 10:33:14;;;;;;;5.50;0.63;;;22.40;99.90;;;;;;6127675;23;20017;-89
2022/07/02 10:35:53;;;;;;;4.65;0.45;;;22.50;99.90;;;;;;6099161;23;20029;-90
2022/07/02 10:38:50;;;;;;;2.13;0.35;;;22.50;99.90;;;;;;6098666;23;20021;-90
2022/07/02 10:41:37;;;;;;;4.68;0.70;;;22.50;99.90;;;;;;6099628;23;20045;-90
2022/07/02 10:44:14;;;;;;;4.20;0.73;;;22.70;99.90;;;;;;6094047;23;20386;-90
2022/07/02 10:46:48;;;;;;;2.83;0.40;;;22.60;97.40;;;;;;6099127;23;20017;-90
2022/07/02 10:49:26;;;;;;;7.75;0.70;;;22.70;98.20;;;;;;6099294;23;20070;-89
2022/07/02 10:52:06;;;;;;;3.65;0.40;;;22.60;95.10;;;;;;6099343;23;20057;-89
2022/07/02 10:54:44;;;;;;;5.35;0.50;;;22.70;97.50;;;;;;6099777;23;20024;-90
2022/07/02 10:57:44;;;;;;;5.55;0.73;;;22.70;96.60;;;;;;6098678;23;20025;-90
2022/07/02 11:00:42;;;;;;;2.25;0.55;;;22.70;96.00;;;;;;6101928;23;20072;-90
2022/07/02 11:03:18;;;;;;;4.18;0.25;;;22.90;96.00;;;;;;6074403;23;20018;-90
2022/07/02 11:06:20;;;;;;;4.35;0.40;;;23.00;96.60;;;;;;6103284;23;20023;-90
2022/07/02 11:09:44;;;;;;;3.42;0.40;;;23.20;96.50;;;;;;6112319;23;20028;-90
2022/07/02 11:12:17;;;;;;;1.92;0.35;;;23.40;96.00;;;;;;6029610;23;20350;-89
2022/07/02 11:15:35;;;;;;;4.95;0.35;;;23.70;93.20;;;;;;6129186;23;20048;-90
2022/07/02 11:18:51;;;;;;;2.85;0.40;;;23.60;91.20;;;;;;6106061;23;20026;-91
2022/07/02 11:21:59;;;;;;;5.90;0.63;;;23.60;92.20;;;;;;6126406;23;20507;-91
2022/07/02 11:25:26;;;;;;;2.55;0.35;;;23.40;91.90;;;;;;6055816;23;20455;-90
2022/07/02 11:36:36;;;;;;;;;;;23.10;93.40;;;;;;6112082;23;20074;-92
2022/07/02 12:02:07;;;;;;;3.03;0.40;;;23.90;85.50;;;;;;6152068;23;20044;-89
2022/07/02 12:05:40;;;;;;;;;;;;;;;;;;;;;
2022/07/02 12:13:13;;;;;;;1.08;0.20;;;24.20;86.60;;;;;;6064214;23;20033;-89
2022/07/02 12:19:41;;;;;;;1.63;0.22;;;23.70;83.10;;;;;;6120995;23;20017;-90
2022/07/02 12:22:41;;;;;;;2.97;0.43;;;23.80;88.10;;;;;;6097248;23;20028;-91
2022/07/02 12:29:56;;;;;;;2.10;0.40;;;23.80;83.90;;;;;;6033540;23;20022;-89
2022/07/02 12:35:34;;;;;;;2.92;0.50;;;23.70;88.70;;;;;;6041105;23;20029;-89
2022/07/02 12:38:07;;;;;;;1.23;0.38;;;23.70;90.20;;;;;;6099338;23;20507;-89
2022/07/02 12:44:22;;;;;;;2.45;0.38;;;23.90;85.10;;;;;;6129027;23;20025;-89
2022/07/02 12:47:31;;;;;;;;;;;;;;;;;;;;;
2022/07/02 12:50:39;;;;;;;2.33;0.45;;;23.60;84.60;;;;;;6181727;23;20027;-90
2022/07/02 12:57:28;;;;;;;4.70;0.50;;;23.50;83.20;;;;;;6181956;23;20076;-89
2022/07/02 13:00:20;;;;;;;3.90;0.63;;;23.70;82.80;;;;;;6087754;23;20036;-89
2022/07/02 13:03:24;;;;;;;;;;;;;;;;;;;;;
2022/07/02 13:06:19;;;;;;;4.22;0.30;;;23.70;82.00;;;;;;6181733;23;20541;-89
2022/07/02 13:08:51;;;;;;;3.22;0.30;;;23.70;89.40;;;;;;6155454;23;20091;-89
2022/07/02 13:11:32;;;;;;;;;;;;;;;;;;;;;
2022/07/02 13:14:16;;;;;;;1.95;0.32;;;23.60;87.90;;;;;;6181709;23;20012;-90
2022/07/02 13:16:45;;;;;;;1.77;0.28;;;23.70;87.00;;;;;;6157379;22;20053;-89
2022/07/02 13:22:14;;;;;;;2.22;0.40;;;24.00;88.50;;;;;;6171991;22;20021;-90
2022/07/02 13:25:08;;;;;;;6.35;0.60;;;24.00;86.60;;;;;;6183423;23;20504;-89
2022/07/02 13:27:56;;;;;;;1.95;0.25;;;24.10;85.00;;;;;;6128183;23;20096;-89
2022/07/02 13:30:28;;;;;;;2.13;0.30;;;24.10;84.20;;;;;;6127885;23;20338;-89
2022/07/02 13:34:04;;;;;;;2.63;0.38;;;23.90;83.90;;;;;;6127044;23;20017;-89
2022/07/02 13:37:10;;;;;;;5.75;0.75;;;23.80;86.10;;;;;;6061660;23;20044;-89
2022/07/02 13:39:46;;;;;;;1.23;0.28;;;23.80;83.30;;;;;;6126849;23;20021;-89
2022/07/02 13:42:21;;;;;;;1.80;0.30;;;23.80;84.10;;;;;;6128356;23;20024;-89
2022/07/02 13:44:52;;;;;;;1.67;0.30;;;23.80;86.10;;;;;;6107993;23;20619;-90
2022/07/02 13:49:53;;;;;;;3.75;0.40;;;23.80;87.70;;;;;;6162043;22;20080;-89
2022/07/02 13:52:52;;;;;;;3.38;0.40;;;23.80;87.20;;;;;;6178706;23;20027;-90
2022/07/02 13:55:28;;;;;;;3.20;0.50;;;23.70;90.30;;;;;;6098712;23;20022;-90
2022/07/02 13:58:05;;;;;;;3.00;0.57;;;23.80;88.50;;;;;;6122856;23;20013;-90
2022/07/02 14:00:36;;;;;;;2.40;0.40;;;23.80;91.40;;;;;;6092806;23;20067;-90
2022/07/02 14:03:44;;;;;;;4.45;0.65;;;24.10;90.30;;;;;;6128289;23;20021;-89
2022/07/02 14:06:10;;;;;;;2.35;0.43;;;23.90;87.00;;;;;;6098709;23;20028;-88
2022/07/02 14:08:36;;;;;;;4.43;0.60;;;23.80;90.90;;;;;;6098583;23;20376;-89
2022/07/02 14:11:02;;;;;;;2.22;0.38;;;23.80;90.70;;;;;;6098824;23;20017;-89
2022/07/02 14:13:57;;;;;;;3.08;0.47;;;23.80;90.00;;;;;;6098169;23;20399;-88
2022/07/02 14:16:38;;;;;;;3.80;0.57;;;23.70;90.10;;;;;;6097853;23;20021;-88
2022/07/02 14:19:27;;;;;;;1.08;0.22;;;23.70;92.00;;;;;;6098843;23;20013;-90
2022/07/02 14:22:11;;;;;;;;;;;;;;;;;;;;;